createdAt,value
2023-01-12T00:00:30.754Z,5.17
2023-01-12T00:04:35.496Z,5.14
2023-01-12T00:08:38.956Z,5.05
2023-01-12T00:12:42.034Z,5.05
2023-01-12T00:16:45.568Z,5.01
2023-01-12T00:20:50.625Z,5.01
2023-01-12T00:24:55.038Z,5.03
2023-01-12T00:28:58.303Z,5.02
2023-01-12T00:33:01.556Z,4.96
2023-01-12T00:37:06.425Z,4.95
2023-01-12T00:41:11.184Z,4.93
2023-01-12T00:45:22.716Z,4.91
2023-01-12T00:49:25.825Z,4.90
2023-01-12T00:53:30.209Z,4.87
2023-01-12T00:57:33.431Z,4.90
2023-01-12T01:01:36.880Z,4.88
2023-01-12T01:05:40.147Z,4.82
2023-01-12T01:09:45.159Z,4.82
2023-01-12T01:13:49.148Z,4.82
2023-01-12T01:17:52.188Z,4.83
2023-01-12T01:21:55.256Z,4.78
2023-01-12T01:26:03.584Z,4.78
2023-01-12T01:30:07.913Z,4.82
2023-01-12T01:34:11.045Z,4.88
2023-01-12T01:38:14.189Z,4.94
2023-01-12T01:42:28.176Z,4.94
2023-01-12T01:46:37.738Z,4.95
2023-01-12T01:50:44.258Z,4.93
2023-01-12T01:54:52.808Z,4.96
2023-01-12T01:59:02.212Z,5.01
2023-01-12T02:03:08.242Z,5.07
2023-01-12T02:07:12.028Z,5.15
2023-01-12T02:11:30.740Z,5.25
2023-01-12T02:16:04.981Z,5.32
2023-01-12T02:20:51.988Z,5.41
2023-01-12T02:25:26.976Z,5.50
2023-01-12T02:29:52.472Z,5.63
2023-01-12T02:34:09.523Z,5.71
2023-01-12T02:38:24.024Z,5.78
2023-01-12T02:42:42.725Z,5.84
2023-01-12T02:46:51.641Z,5.90
2023-01-12T02:51:01.813Z,5.98
2023-01-12T02:55:07.401Z,6.04
2023-01-12T02:59:15.394Z,6.14
2023-01-12T03:03:20.709Z,6.19
2023-01-12T03:07:50.189Z,6.23
2023-01-12T03:11:54.926Z,6.28
2023-01-12T03:16:00.788Z,6.33
2023-01-12T03:20:08.309Z,6.33
2023-01-12T03:24:16.360Z,6.36
2023-01-12T03:28:22.271Z,6.39
2023-01-12T03:32:26.155Z,6.38
2023-01-12T03:36:44.395Z,6.41
2023-01-12T03:40:57.535Z,6.41
2023-01-12T03:45:10.541Z,6.43
2023-01-12T03:49:20.611Z,6.45
2023-01-12T03:53:25.815Z,6.48
2023-01-12T03:57:31.072Z,6.50
2023-01-12T04:01:34.198Z,6.54
2023-01-12T04:05:37.496Z,6.55
2023-01-12T04:09:40.569Z,6.59
2023-01-12T04:13:44.955Z,6.61
2023-01-12T04:17:48.104Z,6.62
2023-01-12T04:22:08.763Z,6.64
2023-01-12T04:26:11.776Z,6.66
2023-01-12T04:30:17.920Z,6.62
2023-01-12T04:34:21.005Z,6.63
2023-01-12T04:38:24.041Z,6.65
2023-01-12T04:42:44.192Z,6.66
2023-01-12T04:46:49.285Z,6.66
2023-01-12T04:50:52.292Z,6.66
2023-01-12T04:54:56.877Z,6.66
2023-01-12T04:59:01.277Z,6.61
2023-01-12T05:03:05.665Z,6.61
2023-01-12T05:07:08.721Z,6.58
2023-01-12T05:11:10.736Z,6.59
2023-01-12T05:15:13.940Z,6.56
2023-01-12T05:19:18.346Z,6.57
2023-01-12T05:23:21.423Z,6.58
2023-01-12T05:27:24.493Z,6.57
2023-01-12T05:31:27.775Z,6.57
2023-01-12T05:35:32.176Z,6.53
2023-01-12T05:39:35.188Z,6.48
2023-01-12T05:43:54.848Z,6.47
2023-01-12T05:47:59.031Z,6.44
2023-01-12T05:52:03.456Z,6.43
2023-01-12T05:56:08.481Z,6.42
2023-01-12T06:00:12.739Z,6.41
2023-01-12T06:04:16.494Z,6.39
2023-01-12T06:08:21.153Z,6.37
2023-01-12T06:12:41.476Z,6.40
2023-01-12T06:16:44.861Z,6.39
2023-01-12T06:20:47.943Z,6.39
2023-01-12T06:24:53.844Z,6.45
2023-01-12T06:28:56.880Z,6.44
2023-01-12T06:33:03.067Z,6.43
2023-01-12T06:37:07.324Z,6.43
2023-01-12T06:41:33.459Z,6.42
2023-01-12T06:45:36.542Z,6.41
2023-01-12T06:49:39.578Z,6.43
2023-01-12T06:53:42.621Z,6.45
2023-01-12T06:57:47.126Z,6.44
2023-01-12T07:01:50.162Z,6.43
2023-01-12T07:05:53.440Z,6.43
2023-01-12T07:09:56.531Z,6.40
2023-01-12T07:14:01.173Z,6.38
2023-01-12T07:18:04.844Z,6.34
2023-01-12T07:22:07.874Z,6.34
2023-01-12T07:26:11.836Z,6.30
2023-01-12T07:30:17.034Z,6.28
2023-01-12T07:34:20.439Z,6.26
2023-01-12T07:38:23.442Z,6.24
2023-01-12T07:42:26.568Z,6.23
2023-01-12T07:46:31.239Z,6.21
2023-01-12T07:50:36.946Z,6.21
2023-01-12T07:54:39.970Z,6.18
2023-01-12T07:58:43.376Z,6.15
2023-01-12T08:02:47.885Z,6.14
2023-01-12T08:06:51.029Z,6.15
2023-01-12T08:10:54.322Z,6.19
2023-01-12T08:14:57.400Z,6.23
2023-01-12T08:19:05.061Z,6.27
2023-01-12T08:23:14.959Z,6.38
2023-01-12T08:27:22.062Z,6.45
2023-01-12T08:31:27.030Z,6.55
2023-01-12T08:35:33.467Z,6.61
2023-01-12T08:39:37.326Z,6.71
2023-01-12T08:43:57.692Z,6.78
2023-01-12T08:48:00.764Z,6.84
2023-01-12T08:52:05.359Z,6.91
2023-01-12T08:56:09.402Z,6.97
2023-01-12T09:00:13.935Z,7.04
2023-01-12T09:04:17.119Z,7.11
2023-01-12T09:08:21.806Z,7.16
2023-01-12T09:12:26.977Z,7.20
2023-01-12T09:16:32.380Z,7.24
2023-01-12T09:20:35.478Z,7.29
2023-01-12T09:24:40.141Z,7.32
2023-01-12T09:28:44.500Z,7.40
2023-01-12T09:32:47.543Z,7.43
2023-01-12T09:36:52.422Z,7.50
2023-01-12T09:40:59.311Z,7.58
2023-01-12T09:45:31.229Z,7.66
2023-01-12T09:49:40.697Z,7.70
2023-01-12T09:53:47.330Z,7.76
2023-01-12T09:58:07.695Z,7.85
2023-01-12T10:02:14.361Z,7.93
2023-01-12T10:06:19.711Z,8.02
2023-01-12T10:10:23.001Z,8.02
2023-01-12T10:14:43.397Z,8.01
2023-01-12T10:18:54.576Z,8.02
2023-01-12T10:23:02.749Z,8.15
2023-01-12T10:27:05.836Z,8.23
2023-01-12T10:31:17.069Z,8.28
2023-01-12T10:35:23.161Z,8.33
2023-01-12T10:39:32.741Z,8.36
2023-01-12T10:43:35.844Z,8.41
2023-01-12T10:47:40.584Z,8.47
2023-01-12T10:51:52.404Z,8.51
2023-01-12T10:55:57.675Z,8.58
2023-01-12T11:00:02.883Z,8.64
2023-01-12T11:04:07.514Z,8.71
2023-01-12T11:08:23.451Z,8.76
2023-01-12T11:12:32.346Z,8.78
2023-01-12T11:16:40.083Z,8.87
2023-01-12T11:20:49.982Z,8.88
2023-01-12T11:24:57.623Z,8.92
2023-01-12T11:29:08.314Z,8.96
2023-01-12T11:33:14.439Z,9.00
2023-01-12T11:37:19.093Z,9.02
2023-01-12T11:41:26.785Z,9.02
2023-01-12T11:45:43.416Z,9.05
2023-01-12T11:49:57.222Z,9.06
2023-01-12T11:54:01.874Z,9.05
2023-01-12T11:58:17.962Z,9.12
2023-01-12T12:02:34.768Z,9.18
2023-01-12T12:06:56.834Z,9.24
2023-01-12T12:11:11.460Z,9.35
2023-01-12T12:15:26.889Z,9.39
2023-01-12T12:19:41.332Z,9.46
2023-01-12T12:23:57.119Z,9.50
2023-01-12T12:28:20.954Z,9.58
2023-01-12T12:32:33.376Z,9.60
2023-01-12T12:36:42.935Z,9.65
2023-01-12T12:41:18.947Z,9.73
2023-01-12T12:45:32.181Z,9.74
2023-01-12T12:49:38.584Z,9.77
2023-01-12T12:53:44.624Z,9.78
2023-01-12T12:58:00.024Z,9.84
2023-01-12T13:02:05.226Z,9.95
2023-01-12T13:06:17.176Z,9.96
2023-01-12T13:10:26.437Z,9.98
2023-01-12T13:14:31.875Z,9.99
2023-01-12T13:19:04.276Z,10.03
2023-01-12T13:23:40.397Z,10.04
2023-01-12T13:27:55.764Z,10.01
2023-01-12T13:32:00.732Z,9.98
2023-01-12T13:36:30.778Z,9.99
2023-01-12T13:40:34.058Z,9.98
2023-01-12T13:44:43.179Z,9.99
2023-01-12T13:48:50.008Z,9.98
2023-01-12T13:53:01.866Z,9.99
2023-01-12T13:57:19.579Z,9.99
2023-01-12T14:01:28.635Z,10.00
2023-01-12T14:05:57.096Z,9.95
2023-01-12T14:10:25.873Z,9.93
2023-01-12T14:15:09.726Z,9.92
2023-01-12T14:19:28.265Z,9.88
2023-01-12T14:23:33.708Z,9.90
2023-01-12T14:27:39.133Z,9.87
2023-01-12T14:31:45.627Z,9.86
2023-01-12T14:35:52.259Z,9.85
2023-01-12T14:39:56.477Z,9.82
2023-01-12T14:44:21.024Z,9.78
2023-01-12T14:48:26.933Z,9.78
2023-01-12T14:52:32.604Z,9.74
2023-01-12T14:56:41.208Z,9.74
2023-01-12T15:00:45.889Z,9.71
2023-01-12T15:04:56.216Z,9.70
2023-01-12T15:09:01.931Z,9.63
2023-01-12T15:13:27.449Z,9.60
2023-01-12T15:17:49.275Z,9.57
2023-01-12T15:22:10.696Z,9.50
2023-01-12T15:26:13.827Z,9.46
2023-01-12T15:30:17.275Z,9.43
2023-01-12T15:34:21.665Z,9.44
2023-01-12T15:38:28.979Z,9.43
2023-01-12T15:42:32.829Z,9.44
2023-01-12T15:46:36.164Z,9.46
2023-01-12T15:50:42.350Z,9.49
2023-01-12T15:54:45.401Z,9.52
2023-01-12T15:58:49.301Z,9.54
2023-01-12T16:02:53.853Z,9.55
2023-01-12T16:06:59.348Z,9.53
2023-01-12T16:11:13.330Z,9.48
2023-01-12T16:15:18.474Z,9.39
2023-01-12T16:19:23.718Z,9.33
2023-01-12T16:23:28.955Z,9.25
2023-01-12T16:27:32.428Z,9.29
2023-01-12T16:31:37.271Z,9.29
2023-01-12T16:35:41.906Z,9.30
2023-01-12T16:39:46.325Z,9.31
2023-01-12T16:43:49.923Z,9.32
2023-01-12T16:47:57.001Z,9.29
2023-01-12T16:52:00.195Z,9.20
2023-01-12T16:56:05.121Z,9.16
2023-01-12T17:00:09.792Z,9.11
2023-01-12T17:04:12.962Z,9.08
2023-01-12T17:08:16.350Z,9.07
2023-01-12T17:12:20.943Z,9.04
2023-01-12T17:16:25.620Z,9.05
2023-01-12T17:20:28.766Z,9.06
2023-01-12T17:24:33.001Z,9.02
2023-01-12T17:28:44.501Z,8.97
2023-01-12T17:32:47.721Z,8.95
2023-01-12T17:36:50.780Z,8.93
2023-01-12T17:40:53.845Z,8.84
2023-01-12T17:44:58.486Z,8.76
2023-01-12T17:49:02.955Z,8.69
2023-01-12T17:53:09.542Z,8.67
2023-01-12T17:57:13.777Z,8.62
2023-01-12T18:01:19.575Z,8.58
2023-01-12T18:05:23.108Z,8.48
2023-01-12T18:09:27.909Z,8.47
2023-01-12T18:13:31.253Z,8.48
2023-01-12T18:17:35.774Z,8.49
2023-01-12T18:21:38.838Z,8.48
2023-01-12T18:25:42.026Z,8.46
2023-01-12T18:29:45.625Z,8.42
2023-01-12T18:33:51.105Z,8.36
2023-01-12T18:37:54.277Z,8.31
2023-01-12T18:42:14.666Z,8.28
2023-01-12T18:46:18.308Z,8.23
2023-01-12T18:50:42.881Z,8.17
2023-01-12T18:54:47.884Z,8.12
2023-01-12T18:58:51.053Z,8.09
2023-01-12T19:02:54.692Z,8.09
2023-01-12T19:07:01.328Z,8.10
2023-01-12T19:11:08.845Z,8.11
2023-01-12T19:15:29.722Z,8.07
2023-01-12T19:19:34.912Z,7.99
2023-01-12T19:23:56.776Z,7.91
2023-01-12T19:28:17.783Z,7.82
2023-01-12T19:32:20.825Z,7.76
2023-01-12T19:36:36.441Z,7.72
2023-01-12T19:40:46.453Z,7.67
2023-01-12T19:44:49.484Z,7.64
2023-01-12T19:48:52.671Z,7.62
2023-01-12T19:52:57.379Z,7.65
2023-01-12T19:57:01.849Z,7.67
2023-01-12T20:01:05.403Z,7.67
2023-01-12T20:05:13.360Z,7.65
2023-01-12T20:09:16.676Z,7.66
2023-01-12T20:13:21.504Z,7.65
2023-01-12T20:17:24.570Z,7.63
2023-01-12T20:21:27.880Z,7.61
2023-01-12T20:25:31.372Z,7.64
2023-01-12T20:29:35.913Z,7.65
2023-01-12T20:33:41.324Z,7.67
2023-01-12T20:37:45.300Z,7.64
2023-01-12T20:41:50.775Z,7.58
2023-01-12T20:45:55.444Z,7.53
2023-01-12T20:49:58.715Z,7.52
2023-01-12T20:54:03.411Z,7.50
2023-01-12T20:58:06.602Z,7.48
2023-01-12T21:02:17.997Z,7.47
2023-01-12T21:06:21.381Z,7.47
2023-01-12T21:10:24.926Z,7.44
2023-01-12T21:14:28.541Z,7.41
2023-01-12T21:18:33.054Z,7.38
2023-01-12T21:22:36.113Z,7.33
2023-01-12T21:26:39.179Z,7.30
2023-01-12T21:30:42.436Z,7.25
2023-01-12T21:34:48.928Z,7.18
2023-01-12T21:38:52.368Z,7.11
2023-01-12T21:43:10.257Z,7.04
2023-01-12T21:47:13.416Z,7.02
2023-01-12T21:51:18.910Z,6.98
2023-01-12T21:55:21.937Z,6.95
2023-01-12T21:59:24.961Z,6.85
2023-01-12T22:03:29.520Z,6.79
2023-01-12T22:07:33.964Z,6.76
2023-01-12T22:11:37.059Z,6.70
2023-01-12T22:15:40.121Z,6.64
2023-01-12T22:19:43.179Z,6.62
2023-01-12T22:23:48.292Z,6.60
2023-01-12T22:27:51.297Z,6.56
2023-01-12T22:31:54.410Z,6.58
2023-01-12T22:35:57.448Z,6.56
2023-01-12T22:40:02.242Z,6.58
2023-01-12T22:44:05.682Z,6.61
2023-01-12T22:48:09.151Z,6.64
2023-01-12T22:52:12.153Z,6.65
2023-01-12T22:56:16.608Z,6.65
2023-01-12T23:01:09.680Z,6.61
